Lima, Ohio
Current Conditions -  °F | °C
As of 5:12 AM on Thursday 23 Oct 2014 (Local Time) from KAOH Reporting Station
Haze Haze  
Wind Chill: 37°   Ceiling: Unl
Heat Index: 37°   Visibility: 3mi
Dew Point: 35°   Wind: 3mph
Humidity: 93%   Direction: 290°WNW
Pressure: 30.25"   Gusts: NA
Location:  40.74°N, 84.11°W
Report Text: KAOH 230912Z AUTO 29003KT 3SM BR CLR 03/02 A3025 RMK AO2 T00280017
Loading
Personal Weather Stations






























Interactive Weather Map
Tropical Storm Tracking
New forecast layout! Learn more

10-Day Weather Forecast

Advertisements
Track Severe Weather on mobile